createdAt,value
2023-12-01T00:00:21.571Z,0.080
2023-12-01T00:01:22.429Z,0.080
2023-12-01T00:02:22.939Z,0.080
2023-12-01T00:03:21.855Z,0.080
2023-12-01T00:04:22.917Z,0.080
2023-12-01T00:05:21.687Z,0.080
2023-12-01T00:06:22.203Z,0.080
2023-12-01T00:07:21.753Z,0.080
2023-12-01T00:08:22.333Z,0.089
2023-12-01T00:09:21.832Z,0.089
2023-12-01T00:10:22.560Z,0.089
2023-12-01T00:11:22.475Z,0.089
2023-12-01T00:12:22.585Z,0.089
2023-12-01T00:13:22.281Z,0.080
2023-12-01T00:14:21.904Z,0.080
2023-12-01T00:15:22.527Z,0.089
2023-12-01T00:16:22.286Z,0.080
2023-12-01T00:18:21.862Z,0.089
2023-12-01T00:19:23.217Z,0.080
2023-12-01T00:20:22.180Z,0.080
2023-12-01T00:21:21.693Z,0.089
2023-12-01T00:22:22.368Z,0.089
2023-12-01T00:25:22.699Z,0.089
2023-12-01T00:26:22.548Z,0.080
2023-12-01T00:27:22.758Z,0.089
2023-12-01T00:28:22.824Z,0.080
2023-12-01T00:29:22.332Z,0.080
2023-12-01T00:30:22.062Z,0.080
2023-12-01T00:33:23.089Z,0.080
2023-12-01T00:34:22.017Z,0.080
2023-12-01T00:35:22.241Z,0.080
2023-12-01T00:36:22.359Z,0.080
2023-12-01T00:37:22.407Z,0.080
2023-12-01T00:38:22.469Z,0.080
2023-12-01T00:39:22.441Z,0.080
2023-12-01T00:40:23.108Z,0.080
2023-12-01T00:41:21.688Z,0.080
2023-12-01T00:42:22.452Z,0.080
2023-12-01T00:43:22.745Z,0.080
2023-12-01T00:44:22.426Z,0.080
2023-12-01T00:47:22.571Z,0.080
2023-12-01T00:48:22.620Z,0.080
2023-12-01T00:49:22.790Z,0.071
2023-12-01T00:50:22.431Z,0.071
2023-12-01T00:51:22.278Z,0.071
2023-12-01T00:52:22.492Z,0.071
2023-12-01T00:54:22.684Z,0.071
2023-12-01T00:55:22.708Z,0.071
2023-12-01T00:56:22.176Z,0.071
2023-12-01T00:57:21.673Z,0.071
2023-12-01T00:58:22.335Z,0.071
2023-12-01T00:59:21.961Z,0.071
2023-12-01T01:00:22.606Z,0.071
2023-12-01T01:01:22.419Z,0.071
2023-12-01T01:02:22.288Z,0.071
2023-12-01T01:03:22.650Z,0.071
2023-12-01T01:04:25.495Z,0.071
2023-12-01T01:05:22.340Z,0.071
2023-12-01T01:06:21.803Z,0.071
2023-12-01T01:07:22.478Z,0.071
2023-12-01T01:08:22.603Z,0.071
2023-12-01T01:09:22.162Z,0.071
2023-12-01T01:10:21.803Z,0.071
2023-12-01T01:11:24.390Z,0.071
2023-12-01T01:12:21.956Z,0.062
2023-12-01T01:13:22.640Z,0.062
2023-12-01T01:14:22.232Z,0.062
2023-12-01T01:15:22.060Z,0.062
2023-12-01T01:16:22.693Z,0.062
2023-12-01T01:17:22.300Z,0.062
2023-12-01T01:18:22.370Z,0.062
2023-12-01T01:19:23.144Z,0.062
2023-12-01T01:20:22.525Z,0.062
2023-12-01T01:21:22.051Z,0.062
2023-12-01T01:22:21.671Z,0.062
2023-12-01T01:23:22.348Z,0.062
2023-12-01T01:24:21.839Z,0.062
2023-12-01T01:25:22.574Z,0.062
2023-12-01T01:26:22.860Z,0.062
2023-12-01T01:27:22.407Z,0.062
2023-12-01T01:28:22.027Z,0.062
2023-12-01T01:29:22.020Z,0.062
2023-12-01T01:31:22.605Z,0.062
2023-12-01T01:32:22.280Z,0.062
2023-12-01T01:33:22.428Z,0.062
2023-12-01T01:34:24.365Z,0.062
2023-12-01T01:35:22.551Z,0.062
2023-12-01T01:37:21.853Z,0.062
2023-12-01T01:38:22.376Z,0.062
2023-12-01T01:39:22.232Z,0.062
2023-12-01T01:40:22.574Z,0.062
2023-12-01T01:41:22.052Z,0.062
2023-12-01T01:42:21.593Z,0.062
2023-12-01T01:43:22.278Z,0.062
2023-12-01T01:45:22.141Z,0.062
2023-12-01T01:46:23.006Z,0.062
2023-12-01T01:47:21.550Z,0.062
2023-12-01T01:48:22.347Z,0.062
2023-12-01T01:49:22.649Z,0.062
2023-12-01T01:50:22.556Z,0.062
2023-12-01T01:51:22.670Z,0.062
2023-12-01T01:52:22.218Z,0.062
2023-12-01T01:53:21.907Z,0.062
2023-12-01T01:54:22.384Z,0.062
2023-12-01T01:55:22.259Z,0.062
2023-12-01T01:58:22.155Z,0.062
2023-12-01T01:59:22.431Z,0.062
2023-12-01T02:00:22.198Z,0.062
2023-12-01T02:01:22.755Z,0.062
2023-12-01T02:02:23.511Z,0.062
2023-12-01T02:03:22.709Z,0.062
2023-12-01T02:04:22.726Z,0.062
2023-12-01T02:05:22.655Z,0.062
2023-12-01T02:06:22.120Z,0.062
2023-12-01T02:07:21.712Z,0.062
2023-12-01T02:08:22.374Z,0.054
2023-12-01T02:09:21.877Z,0.054
2023-12-01T02:10:22.642Z,0.054
2023-12-01T02:11:22.112Z,0.054
2023-12-01T02:12:21.612Z,0.062
2023-12-01T02:13:22.472Z,0.062
2023-12-01T02:14:22.343Z,0.062
2023-12-01T02:15:21.879Z,0.062
2023-12-01T02:16:22.754Z,0.062
2023-12-01T02:17:22.765Z,0.062
2023-12-01T02:18:22.727Z,0.062
2023-12-01T02:19:22.707Z,0.062
2023-12-01T02:20:23.693Z,0.062
2023-12-01T02:21:22.911Z,0.062
2023-12-01T02:22:22.933Z,0.062
2023-12-01T02:24:22.064Z,0.062
2023-12-01T02:25:21.871Z,0.062
2023-12-01T02:26:22.488Z,0.062
2023-12-01T02:27:22.198Z,0.062
2023-12-01T02:28:22.465Z,0.062
2023-12-01T02:29:24.177Z,0.062
2023-12-01T02:30:21.825Z,0.062
2023-12-01T02:31:22.935Z,0.062
2023-12-01T02:32:22.624Z,0.062
2023-12-01T02:33:22.531Z,0.062
2023-12-01T02:35:21.805Z,0.062
2023-12-01T02:36:22.360Z,0.062
2023-12-01T02:37:22.321Z,0.062
2023-12-01T02:38:22.052Z,0.062
2023-12-01T02:39:22.057Z,0.062
2023-12-01T02:40:22.312Z,0.062
2023-12-01T02:41:22.956Z,0.062
2023-12-01T02:42:22.484Z,0.062
2023-12-01T02:43:22.742Z,0.062
2023-12-01T02:44:22.535Z,0.062
2023-12-01T02:45:22.071Z,0.062
2023-12-01T02:46:23.028Z,0.062
2023-12-01T02:47:21.769Z,0.062
2023-12-01T02:48:22.370Z,0.062
2023-12-01T02:49:22.025Z,0.062
2023-12-01T02:50:21.564Z,0.062
2023-12-01T02:51:22.209Z,0.062
2023-12-01T02:52:21.884Z,0.062
2023-12-01T02:53:22.528Z,0.062
2023-12-01T02:54:22.013Z,0.062
2023-12-01T02:55:21.791Z,0.062
2023-12-01T02:56:22.482Z,0.062
2023-12-01T02:57:22.318Z,0.062
2023-12-01T02:58:22.664Z,0.062
2023-12-01T02:59:22.394Z,0.062
2023-12-01T03:00:22.497Z,0.062
2023-12-01T03:02:22.602Z,0.062
2023-12-01T03:03:22.348Z,0.062
2023-12-01T03:04:22.507Z,0.062
2023-12-01T03:06:21.924Z,0.062
2023-12-01T03:07:23.168Z,0.062
2023-12-01T03:08:22.117Z,0.062
2023-12-01T03:09:21.761Z,0.062
2023-12-01T03:10:22.701Z,0.062
2023-12-01T03:11:22.301Z,0.062
2023-12-01T03:12:24.265Z,0.062
2023-12-01T03:13:22.822Z,0.062
2023-12-01T03:14:22.561Z,0.062
2023-12-01T03:16:23.018Z,0.062
2023-12-01T03:17:21.864Z,0.062
2023-12-01T03:18:25.158Z,0.062
2023-12-01T03:19:21.910Z,0.062
2023-12-01T03:20:22.561Z,0.062
2023-12-01T03:21:23.736Z,0.062
2023-12-01T03:22:22.490Z,0.062
2023-12-01T03:23:22.174Z,0.062
2023-12-01T03:26:22.418Z,0.062
2023-12-01T03:27:22.463Z,0.062
2023-12-01T03:28:23.111Z,0.062
2023-12-01T03:29:21.825Z,0.062
2023-12-01T03:30:22.435Z,0.062
2023-12-01T03:31:23.168Z,0.062
2023-12-01T03:32:21.782Z,0.062
2023-12-01T03:33:22.429Z,0.062
2023-12-01T03:34:22.192Z,0.071
2023-12-01T03:35:22.328Z,0.071
2023-12-01T03:36:22.092Z,0.071
2023-12-01T03:37:22.294Z,0.062
2023-12-01T03:38:22.161Z,0.071
2023-12-01T03:39:22.304Z,0.071
2023-12-01T03:40:22.935Z,0.071
2023-12-01T03:41:22.557Z,0.071
2023-12-01T03:44:22.260Z,0.071
2023-12-01T03:45:22.110Z,0.071
2023-12-01T03:46:22.464Z,0.071
2023-12-01T03:47:22.039Z,0.071
2023-12-01T03:48:21.669Z,0.071
2023-12-01T03:49:22.597Z,0.071
2023-12-01T03:50:22.637Z,0.071
2023-12-01T03:51:22.334Z,0.071
2023-12-01T03:54:21.829Z,0.071
2023-12-01T03:55:23.257Z,0.071
2023-12-01T03:56:22.508Z,0.071
2023-12-01T03:57:22.547Z,0.071
2023-12-01T03:58:22.851Z,0.071
2023-12-01T03:59:22.492Z,0.071
2023-12-01T04:00:24.206Z,0.071
2023-12-01T04:03:21.994Z,0.071
2023-12-01T04:04:22.527Z,0.062
2023-12-01T04:05:26.518Z,0.062
2023-12-01T04:06:22.221Z,0.062
2023-12-01T04:07:22.417Z,0.062
2023-12-01T04:08:23.024Z,0.062
2023-12-01T04:09:22.365Z,0.062
2023-12-01T04:10:22.669Z,0.062
2023-12-01T04:11:23.113Z,0.062
2023-12-01T04:12:21.614Z,0.062
2023-12-01T04:13:25.455Z,0.062
2023-12-01T04:14:22.834Z,0.062
2023-12-01T04:15:22.543Z,0.062
2023-12-01T04:16:22.173Z,0.062
2023-12-01T04:17:21.872Z,0.062
2023-12-01T04:18:22.722Z,0.071
2023-12-01T04:19:22.549Z,0.071
2023-12-01T04:20:22.399Z,0.071
2023-12-01T04:21:22.292Z,0.071
2023-12-01T04:22:22.280Z,0.071
2023-12-01T04:23:22.340Z,0.071
2023-12-01T04:24:22.416Z,0.071
2023-12-01T04:25:22.675Z,0.071
2023-12-01T04:26:22.538Z,0.071
2023-12-01T04:27:22.630Z,0.071
2023-12-01T04:28:22.363Z,0.071
2023-12-01T04:31:27.692Z,0.071
2023-12-01T04:32:22.555Z,0.071
2023-12-01T04:33:22.563Z,0.071
2023-12-01T04:34:22.384Z,0.071
2023-12-01T04:36:21.671Z,0.071
2023-12-01T04:37:22.863Z,0.071
2023-12-01T04:38:22.527Z,0.071
2023-12-01T04:39:22.551Z,0.071
2023-12-01T04:40:23.561Z,0.071
2023-12-01T04:41:22.595Z,0.071
2023-12-01T04:42:22.163Z,0.071
2023-12-01T04:43:21.916Z,0.071
2023-12-01T04:44:22.515Z,0.071
2023-12-01T04:45:22.253Z,0.080
2023-12-01T04:46:22.276Z,0.080
2023-12-01T04:47:22.067Z,0.080
2023-12-01T04:48:22.368Z,0.071
2023-12-01T04:49:23.241Z,0.071
2023-12-01T04:50:21.780Z,0.071
2023-12-01T04:51:22.311Z,0.071
2023-12-01T04:52:22.553Z,0.071
2023-12-01T04:53:22.420Z,0.080
2023-12-01T04:55:21.969Z,0.080
2023-12-01T04:56:21.509Z,0.080
2023-12-01T04:57:22.698Z,0.071
2023-12-01T04:58:22.686Z,0.071
2023-12-01T04:59:22.208Z,0.071
2023-12-01T05:00:21.740Z,0.071
2023-12-01T05:01:22.526Z,0.071
2023-12-01T05:04:23.106Z,0.071
2023-12-01T05:05:22.790Z,0.071
2023-12-01T05:06:22.361Z,0.080
2023-12-01T05:07:22.598Z,0.071
2023-12-01T05:08:22.476Z,0.071
2023-12-01T05:10:23.010Z,0.080
2023-12-01T05:11:21.553Z,0.080
2023-12-01T05:12:22.842Z,0.080
2023-12-01T05:13:23.273Z,0.080
2023-12-01T05:14:21.793Z,0.080
2023-12-01T05:15:22.291Z,0.080
2023-12-01T05:16:22.331Z,0.080
2023-12-01T05:17:22.369Z,0.080
2023-12-01T05:18:22.493Z,0.080
2023-12-01T05:19:22.696Z,0.080
2023-12-01T05:20:22.318Z,0.080
2023-12-01T05:21:23.193Z,0.080
2023-12-01T05:24:21.971Z,0.089
2023-12-01T05:25:22.173Z,0.089
2023-12-01T05:26:21.680Z,0.089
2023-12-01T05:27:22.180Z,0.089
2023-12-01T05:28:22.485Z,0.089
2023-12-01T05:29:21.978Z,0.089
2023-12-01T05:30:21.468Z,0.089
2023-12-01T05:31:22.500Z,0.089
2023-12-01T05:34:23.399Z,0.089
2023-12-01T05:35:22.420Z,0.089
2023-12-01T05:36:22.516Z,0.089
2023-12-01T05:37:22.816Z,0.089
2023-12-01T05:38:22.573Z,0.089
2023-12-01T05:39:22.089Z,0.089
2023-12-01T05:40:22.372Z,0.089
2023-12-01T05:41:21.949Z,0.089
2023-12-01T05:42:22.433Z,0.089
2023-12-01T05:43:22.581Z,0.089
2023-12-01T05:44:22.334Z,0.089
2023-12-01T05:45:22.161Z,0.089
2023-12-01T05:46:22.669Z,0.089
2023-12-01T05:47:22.268Z,0.098
2023-12-01T05:48:23.133Z,0.098
2023-12-01T05:49:22.588Z,0.098
2023-12-01T05:50:22.503Z,0.098
2023-12-01T05:51:22.615Z,0.098
2023-12-01T05:52:22.874Z,0.098
2023-12-01T05:53:22.384Z,0.098
2023-12-01T05:55:27.968Z,0.098
2023-12-01T05:56:21.500Z,0.098
2023-12-01T05:57:22.007Z,0.098
2023-12-01T05:58:22.382Z,0.098
2023-12-01T05:59:22.123Z,0.098
2023-12-01T06:00:22.219Z,0.098
2023-12-01T06:01:22.571Z,0.098
2023-12-01T06:02:23.292Z,0.098
2023-12-01T06:03:22.902Z,0.107
2023-12-01T06:04:22.766Z,0.116
2023-12-01T06:06:22.648Z,0.125
2023-12-01T06:07:22.317Z,0.134
2023-12-01T06:08:22.476Z,0.143
2023-12-01T06:09:21.945Z,0.152
2023-12-01T06:10:22.721Z,0.161
2023-12-01T06:11:22.229Z,0.169
2023-12-01T06:15:22.351Z,0.250
2023-12-01T06:16:22.624Z,0.276
2023-12-01T06:17:22.419Z,0.321
2023-12-01T06:20:22.666Z,0.455
2023-12-01T06:22:22.215Z,0.589
2023-12-01T06:23:21.709Z,0.669
2023-12-01T06:24:22.486Z,0.767
2023-12-01T06:25:22.234Z,0.892
2023-12-01T06:26:22.086Z,1.016
2023-12-01T06:27:21.596Z,1.168
2023-12-01T06:28:23.333Z,1.364
2023-12-01T06:29:22.281Z,1.569
2023-12-01T06:30:22.414Z,1.792
2023-12-01T06:31:24.690Z,1.997
2023-12-01T06:32:22.625Z,2.274
2023-12-01T06:33:22.518Z,2.613
2023-12-01T06:34:22.812Z,3.014
2023-12-01T06:35:22.348Z,3.433
2023-12-01T06:36:21.820Z,4.012
2023-12-01T06:37:22.970Z,4.699
2023-12-01T06:38:22.457Z,5.377
2023-12-01T06:40:24.242Z,6.937
2023-12-01T06:41:21.940Z,7.945
2023-12-01T06:42:22.400Z,8.961
2023-12-01T06:43:23.100Z,9.915
2023-12-01T06:44:21.567Z,10.869
2023-12-01T06:45:23.959Z,11.886
2023-12-01T06:46:22.343Z,12.742
2023-12-01T06:48:22.219Z,15.212
2023-12-01T06:49:22.153Z,16.157
2023-12-01T06:50:21.653Z,17.156
2023-12-01T06:51:22.177Z,18.163
2023-12-01T06:53:22.365Z,19.991
2023-12-01T06:55:22.583Z,22.800
2023-12-01T06:56:22.222Z,24.494
2023-12-01T06:57:22.316Z,26.001
2023-12-01T06:58:22.573Z,27.401
2023-12-01T06:59:25.008Z,29.006
2023-12-01T07:00:21.466Z,31.057
2023-12-01T07:01:22.883Z,33.134
2023-12-01T07:02:23.082Z,35.667
2023-12-01T07:03:22.407Z,37.967
2023-12-01T07:04:22.208Z,41.418
2023-12-01T07:07:22.066Z,51.458
2023-12-01T07:08:23.310Z,57.076
2023-12-01T07:09:21.787Z,61.668
2023-12-01T07:10:22.777Z,67.945
2023-12-01T07:11:22.395Z,73.242
2023-12-01T07:12:22.322Z,74.606
2023-12-01T07:13:22.850Z,74.204
2023-12-01T07:14:22.525Z,72.154
2023-12-01T07:15:22.539Z,71.209
2023-12-01T07:16:22.519Z,72.145
2023-12-01T07:17:22.963Z,73.634
2023-12-01T07:18:21.905Z,74.766
2023-12-01T07:19:22.783Z,73.616
2023-12-01T07:20:22.461Z,73.785
2023-12-01T07:21:21.996Z,74.641
2023-12-01T07:22:21.883Z,74.312
2023-12-01T07:23:24.338Z,73.429
2023-12-01T07:25:22.680Z,74.508
2023-12-01T07:27:22.441Z,76.576
2023-12-01T07:28:22.829Z,80.455
2023-12-01T07:29:22.319Z,86.848
2023-12-01T07:30:22.676Z,91.806
2023-12-01T07:31:23.466Z,95.997
2023-12-01T07:32:21.999Z,105.671
2023-12-01T07:33:21.833Z,115.587
2023-12-01T07:34:22.607Z,123.005
2023-12-01T07:35:22.323Z,137.994
2023-12-01T07:36:40.507Z,146.474
2023-12-01T07:39:23.295Z,163.139
2023-12-01T07:41:22.436Z,175.676
2023-12-01T07:42:22.494Z,185.921
2023-12-01T07:43:22.525Z,195.926
2023-12-01T07:44:22.847Z,202.943
2023-12-01T07:45:23.826Z,203.327
2023-12-01T07:46:23.080Z,199.145
2023-12-01T07:47:22.067Z,212.573
2023-12-01T07:48:21.992Z,232.243
2023-12-01T07:49:26.515Z,250.309
2023-12-01T07:50:22.244Z,253.215
2023-12-01T07:51:22.071Z,268.285
2023-12-01T07:52:22.529Z,527.332
2023-12-01T07:54:22.342Z,485.513
2023-12-01T07:55:22.994Z,533.021
2023-12-01T07:56:21.794Z,575.232
2023-12-01T07:57:22.420Z,588.875
2023-12-01T07:58:23.038Z,587.591
2023-12-01T07:59:21.729Z,626.110
2023-12-01T08:00:23.426Z,653.877
2023-12-01T08:02:22.326Z,699.620
2023-12-01T08:03:22.423Z,684.051
2023-12-01T08:04:23.738Z,658.692
2023-12-01T08:05:24.702Z,659.495
2023-12-01T08:06:21.665Z,636.062
2023-12-01T08:07:25.129Z,623.221
2023-12-01T08:08:22.284Z,582.936
2023-12-01T08:11:22.794Z,541.367
2023-12-01T08:12:22.741Z,556.453
2023-12-01T08:14:22.394Z,543.453
2023-12-01T08:15:22.313Z,561.108
2023-12-01T08:16:22.916Z,605.888
2023-12-01T08:17:22.327Z,610.060
2023-12-01T08:18:22.664Z,622.258
2023-12-01T08:19:22.757Z,655.643
2023-12-01T08:20:21.678Z,691.916
2023-12-01T08:21:24.905Z,699.620
2023-12-01T08:22:22.660Z,727.386
2023-12-01T08:23:22.326Z,736.856
2023-12-01T08:24:32.245Z,765.906
2023-12-01T08:26:21.665Z,751.300
2023-12-01T08:27:23.817Z,800.253
2023-12-01T08:28:22.497Z,832.995
2023-12-01T08:29:22.323Z,772.807
2023-12-01T08:32:23.127Z,754.350
2023-12-01T08:33:22.029Z,750.979
2023-12-01T08:34:33.637Z,737.177
2023-12-01T08:37:29.418Z,754.671
2023-12-01T08:38:22.943Z,790.302
2023-12-01T08:41:22.314Z,1027.040
2023-12-01T08:42:22.350Z,1113.389
2023-12-01T08:43:22.017Z,1166.354
2023-12-01T08:44:21.800Z,1178.391
2023-12-01T08:45:22.722Z,1116.117
2023-12-01T08:46:22.668Z,1090.276
2023-12-01T08:47:22.623Z,1116.759
2023-12-01T08:51:22.966Z,1265.703
2023-12-01T08:52:21.731Z,1299.248
2023-12-01T08:53:22.491Z,1317.384
2023-12-01T08:54:29.187Z,1347.397
2023-12-01T08:55:23.209Z,1389.770
2023-12-01T08:57:22.412Z,1398.115
2023-12-01T08:58:21.993Z,1397.474
2023-12-01T08:59:21.867Z,1381.103
2023-12-01T09:00:23.586Z,1388.004
2023-12-01T09:01:22.748Z,1405.980
2023-12-01T09:03:21.873Z,1531.330
2023-12-01T09:04:23.426Z,1564.875
2023-12-01T09:05:22.367Z,1614.791
2023-12-01T09:06:22.795Z,1617.679
2023-12-01T09:08:22.581Z,1646.088
2023-12-01T09:09:22.741Z,1644.323
2023-12-01T09:10:22.146Z,1621.692
2023-12-01T09:11:21.712Z,1564.714
2023-12-01T09:12:22.829Z,1552.035
2023-12-01T09:13:24.151Z,1582.530
2023-12-01T09:14:21.741Z,1627.630
2023-12-01T09:15:22.541Z,1678.027
2023-12-01T09:16:22.243Z,1750.413
2023-12-01T09:17:22.505Z,1756.512
2023-12-01T09:18:22.835Z,1710.930
2023-12-01T09:19:23.250Z,1730.350
2023-12-01T09:20:22.432Z,1860.516
2023-12-01T09:21:22.916Z,1939.482
2023-12-01T09:22:22.673Z,2082.488
2023-12-01T09:24:22.571Z,2064.672
2023-12-01T09:25:24.162Z,1949.272
2023-12-01T09:26:22.533Z,1769.673
2023-12-01T09:27:22.637Z,1723.609
2023-12-01T09:29:22.138Z,1523.306
2023-12-01T09:30:23.497Z,1567.764
2023-12-01T09:32:22.322Z,1689.583
2023-12-01T09:33:22.841Z,1729.548
2023-12-01T09:34:22.512Z,1863.405
2023-12-01T09:35:54.378Z,1911.555
2023-12-01T09:36:22.935Z,1945.902
2023-12-01T09:37:22.577Z,1945.581
2023-12-01T09:38:22.413Z,1959.545
2023-12-01T09:40:21.727Z,2122.934
2023-12-01T09:41:21.954Z,2123.575
2023-12-01T09:42:22.514Z,2027.436
2023-12-01T09:43:22.645Z,1906.740
2023-12-01T09:44:27.287Z,1938.519
2023-12-01T09:45:21.781Z,2003.521
2023-12-01T09:46:22.875Z,2023.584
2023-12-01T09:47:22.369Z,2288.249
2023-12-01T09:48:22.769Z,2562.864
2023-12-01T09:50:24.067Z,3004.399
2023-12-01T09:51:22.114Z,3191.864
2023-12-01T09:52:21.862Z,3460.219
2023-12-01T09:53:22.542Z,3738.045
2023-12-01T09:54:23.641Z,4070.440
2023-12-01T09:55:22.216Z,4309.746
2023-12-01T09:56:22.121Z,4276.202
2023-12-01T09:57:23.796Z,4162.407
2023-12-01T09:58:22.404Z,4123.405
2023-12-01T09:59:22.336Z,4081.354
2023-12-01T10:00:22.727Z,3968.042
2023-12-01T10:01:22.467Z,3969.004
2023-12-01T10:02:23.042Z,4170.914
2023-12-01T10:03:22.112Z,4308.623
2023-12-01T10:04:22.988Z,4373.304
2023-12-01T10:05:23.688Z,4338.154
2023-12-01T10:06:22.528Z,4378.279
2023-12-01T10:07:24.074Z,4449.060
2023-12-01T10:08:21.877Z,4615.017
2023-12-01T10:09:22.781Z,4633.635
2023-12-01T10:10:22.365Z,4506.198
2023-12-01T10:11:22.134Z,4243.941
2023-12-01T10:12:22.389Z,4122.924
2023-12-01T10:13:24.965Z,3995.647
2023-12-01T10:14:21.542Z,3916.521
2023-12-01T10:15:22.477Z,3894.051
2023-12-01T10:16:22.806Z,3860.507
2023-12-01T10:17:22.630Z,3879.606
2023-12-01T10:18:33.636Z,3658.116
2023-12-01T10:19:26.051Z,3832.098
2023-12-01T10:22:22.366Z,3437.268
2023-12-01T10:23:21.975Z,3497.456
2023-12-01T10:24:21.796Z,3716.056
2023-12-01T10:25:22.089Z,3875.112
2023-12-01T10:26:22.153Z,3827.283
2023-12-01T10:27:22.754Z,4020.525
2023-12-01T10:28:22.413Z,3849.111
2023-12-01T10:29:22.333Z,3691.340
2023-12-01T10:30:25.484Z,3749.761
2023-12-01T10:33:22.662Z,3617.349
2023-12-01T10:34:22.306Z,3487.344
2023-12-01T10:37:22.506Z,3290.090
2023-12-01T10:38:22.339Z,3180.147
2023-12-01T10:39:22.243Z,2926.075
2023-12-01T10:40:22.260Z,2598.013
2023-12-01T10:41:22.285Z,2483.256
2023-12-01T10:42:22.619Z,2197.566
2023-12-01T10:43:22.486Z,2049.264
2023-12-01T10:44:22.460Z,1887.641
2023-12-01T10:45:22.400Z,2000.312
2023-12-01T10:46:23.149Z,2109.451
2023-12-01T10:47:24.246Z,2339.127
2023-12-01T10:48:23.164Z,2495.615
2023-12-01T10:50:22.486Z,2842.134
2023-12-01T10:51:22.720Z,2898.951
2023-12-01T10:52:22.268Z,2906.815
2023-12-01T10:53:21.761Z,3130.392
2023-12-01T10:54:22.851Z,3036.821
2023-12-01T10:55:22.431Z,2947.904
2023-12-01T10:56:22.519Z,3072.772
2023-12-01T10:57:23.043Z,3143.393
2023-12-01T10:58:21.634Z,3001.671
2023-12-01T10:59:22.476Z,3045.969
2023-12-01T11:00:22.328Z,3114.181
2023-12-01T11:01:22.069Z,3270.669
2023-12-01T11:02:22.840Z,3581.878
2023-12-01T11:03:25.143Z,3926.793
2023-12-01T11:04:22.305Z,4186.963
2023-12-01T11:05:21.968Z,4224.841
2023-12-01T11:06:21.828Z,3926.472
2023-12-01T11:07:22.264Z,3728.094
2023-12-01T11:08:22.202Z,3259.916
2023-12-01T11:09:22.597Z,2751.612
2023-12-01T11:10:22.354Z,2530.443
2023-12-01T11:11:22.006Z,2724.969
2023-12-01T11:12:22.083Z,2790.774
2023-12-01T11:13:22.690Z,2720.314
2023-12-01T11:14:21.917Z,2612.298
2023-12-01T11:15:23.563Z,2751.612
2023-12-01T11:16:22.438Z,2782.268
2023-12-01T11:17:27.129Z,2707.635
2023-12-01T11:19:22.462Z,2913.075
2023-12-01T11:21:22.092Z,2628.990
2023-12-01T11:22:22.203Z,2426.920
2023-12-01T11:23:25.029Z,2378.931
2023-12-01T11:24:23.271Z,2372.832
2023-12-01T11:25:22.385Z,2332.707
2023-12-01T11:26:22.518Z,2156.959
2023-12-01T11:27:22.798Z,2041.560
2023-12-01T11:28:22.567Z,2200.455
2023-12-01T11:29:25.362Z,1974.150
2023-12-01T11:30:22.192Z,2463.194
2023-12-01T11:31:22.076Z,2524.825
2023-12-01T11:32:23.294Z,2364.004
2023-12-01T11:33:23.148Z,2513.430
2023-12-01T11:34:22.779Z,2477.478
2023-12-01T11:35:24.140Z,2615.187
2023-12-01T11:36:22.645Z,2416.327
2023-12-01T11:37:22.538Z,2403.006
2023-12-01T11:38:22.333Z,2845.184
2023-12-01T11:39:23.714Z,2896.865
2023-12-01T11:40:22.457Z,2637.497
2023-12-01T11:41:22.555Z,2094.846
2023-12-01T11:42:22.588Z,2273.482
2023-12-01T11:46:23.074Z,2199.492
2023-12-01T11:47:25.441Z,2292.742
2023-12-01T11:48:23.547Z,2522.579
2023-12-01T11:49:23.849Z,2412.315
2023-12-01T11:50:22.272Z,2048.301
2023-12-01T11:51:22.498Z,2064.672
2023-12-01T11:52:22.600Z,2105.600
2023-12-01T11:53:22.771Z,1887.801
2023-12-01T11:54:21.890Z,1820.873
2023-12-01T11:55:22.764Z,2188.417
2023-12-01T11:56:22.595Z,2524.344
2023-12-01T11:58:22.808Z,3025.425
2023-12-01T11:59:22.440Z,3202.135
2023-12-01T12:00:22.602Z,3340.166
2023-12-01T12:01:22.232Z,3439.194
2023-12-01T12:02:22.480Z,3516.395
2023-12-01T12:03:23.151Z,3527.950
2023-12-01T12:04:22.948Z,3505.802
2023-12-01T12:05:21.695Z,3470.491
2023-12-01T12:06:22.068Z,3396.501
2023-12-01T12:07:22.544Z,3241.458
2023-12-01T12:10:22.638Z,2963.633
2023-12-01T12:11:22.152Z,2921.100
2023-12-01T12:12:25.220Z,2821.429
2023-12-01T12:13:22.179Z,2669.275
2023-12-01T12:14:22.432Z,2490.639
2023-12-01T12:15:22.282Z,2320.830
2023-12-01T12:16:22.688Z,2193.072
2023-12-01T12:17:22.778Z,2101.908
2023-12-01T12:18:23.593Z,2029.362
2023-12-01T12:19:23.293Z,1980.891
2023-12-01T12:20:27.923Z,1975.755
2023-12-01T12:21:21.687Z,2008.979
2023-12-01T12:22:22.829Z,2050.227
2023-12-01T12:23:22.540Z,2063.709
2023-12-01T12:24:23.310Z,2030.165
2023-12-01T12:25:23.140Z,1987.632
2023-12-01T12:26:21.991Z,1979.125
2023-12-01T12:27:22.403Z,1996.781
2023-12-01T12:29:22.131Z,2104.155
2023-12-01T12:30:22.483Z,2192.912
2023-12-01T12:31:22.792Z,2252.617
2023-12-01T12:33:22.731Z,2194.998
2023-12-01T12:34:29.736Z,2131.921
2023-12-01T12:35:23.005Z,2085.216
2023-12-01T12:37:22.519Z,1896.789
2023-12-01T12:38:22.631Z,1775.772
2023-12-01T12:39:23.001Z,1683.484
2023-12-01T12:40:21.585Z,1624.902
2023-12-01T12:41:22.163Z,1588.629
2023-12-01T12:42:22.279Z,1575.789
2023-12-01T12:43:21.950Z,1598.901
2023-12-01T12:44:22.556Z,1646.891
2023-12-01T12:45:22.389Z,1686.374
2023-12-01T12:46:22.411Z,1704.671
2023-12-01T12:47:22.989Z,1695.201
2023-12-01T12:49:22.441Z,1698.250
2023-12-01T12:53:21.762Z,1603.074
2023-12-01T12:54:22.608Z,1557.010
2023-12-01T12:55:22.342Z,1516.564
2023-12-01T12:56:22.158Z,1466.328
2023-12-01T12:58:21.553Z,1396.029
2023-12-01T12:59:22.284Z,1383.831
2023-12-01T13:00:22.644Z,1391.856
2023-12-01T13:01:22.440Z,1424.277
2023-12-01T13:02:22.492Z,1449.636
2023-12-01T13:03:22.905Z,1453.328
2023-12-01T13:04:21.991Z,1448.673
2023-12-01T13:05:21.688Z,1438.722
2023-12-01T13:06:22.808Z,1401.646
2023-12-01T13:09:22.760Z,1293.630
2023-12-01T13:10:21.643Z,1257.678
2023-12-01T13:11:22.563Z,1221.245
2023-12-01T13:13:23.352Z,1117.562
2023-12-01T13:14:22.987Z,1070.375
2023-12-01T13:15:21.810Z,1045.337
2023-12-01T13:16:22.604Z,1034.904
2023-12-01T13:17:22.412Z,1035.225
2023-12-01T13:18:23.080Z,1049.510
2023-12-01T13:19:23.618Z,1078.881
2023-12-01T13:20:22.533Z,1110.500
2023-12-01T13:21:23.152Z,1133.130
2023-12-01T13:22:21.737Z,1128.957
2023-12-01T13:23:22.324Z,1097.017
2023-12-01T13:24:22.788Z,1055.287
2023-12-01T13:25:21.707Z,1008.742
2023-12-01T13:26:22.296Z,954.494
2023-12-01T13:27:22.337Z,883.071
2023-12-01T13:28:22.248Z,816.303
2023-12-01T13:29:22.385Z,767.029
2023-12-01T13:30:22.640Z,746.646
2023-12-01T13:32:22.488Z,759.165
2023-12-01T13:33:23.149Z,760.609
2023-12-01T13:34:21.730Z,756.758
2023-12-01T13:35:22.823Z,754.510
2023-12-01T13:36:22.940Z,764.943
2023-12-01T13:37:21.969Z,786.450
2023-12-01T13:38:22.551Z,805.068
2023-12-01T13:39:22.476Z,802.339
2023-12-01T13:41:22.153Z,783.240
2023-12-01T13:42:22.470Z,778.265
2023-12-01T13:43:22.194Z,774.734
2023-12-01T13:44:22.026Z,768.956
2023-12-01T13:45:27.748Z,768.795
2023-12-01T13:46:22.597Z,770.079
2023-12-01T13:47:22.457Z,767.029
2023-12-01T13:48:22.881Z,747.128
2023-12-01T13:49:22.457Z,707.805
2023-12-01T13:50:21.980Z,676.347
2023-12-01T13:53:21.959Z,667.038
2023-12-01T13:54:22.920Z,630.123
2023-12-01T13:55:22.650Z,593.690
2023-12-01T13:56:27.494Z,576.677
2023-12-01T13:57:22.534Z,564.318
2023-12-01T13:58:22.710Z,550.997
2023-12-01T13:59:21.976Z,546.021
2023-12-01T14:00:22.061Z,548.589
2023-12-01T14:01:22.995Z,550.354
2023-12-01T14:02:22.552Z,546.182
2023-12-01T14:05:21.928Z,486.315
2023-12-01T14:06:23.435Z,482.624
2023-12-01T14:07:22.171Z,478.129
2023-12-01T14:08:21.985Z,476.203
2023-12-01T14:09:21.822Z,479.414
2023-12-01T14:10:22.808Z,482.784
2023-12-01T14:11:22.406Z,473.796
2023-12-01T14:12:23.430Z,461.438